Airport View

Enter AWOS ICAO identifier for current METAR.

ex. KFNL

KTXK 041353Z 00000KT 10SM CLR 27/21 A2996 RMK AO2 SLP141 T02720211

4 Jul 2020 14:03

Phone: 870-774-0404

Other Area AWOS: KDEQ - K4O4 - KOSA - KDTN

TAF KTXK 041140Z 0412/0512 VRB03KT 6SM BR SCT250 FM041400 27005KT P6SM SCT040 BKN250 FM041800 27005KT P6SM VCTS BKN040CB BKN150 BKN250 FM050300 VRB10G15KT 4SM -TSRA BKN050CB BKN250